Time;durP1;ratioP1;P1;durP2;ratioP2;P2;SDS_P1;SDS_P2;PMS_P1;PMS_P2;Temp;Humidity;BMP_temperature;BMP_pressure;BME280_temperature;BME280_humidity;BME280_pressure;Samples;Min_cycle;Max_cycle;Signal;HPM_P1;HPM_P2
2022/01/29 00:03:59;;;;;;;5.10;4.60;;;6.60;43.00;;;;;;10370678;28;20241;-70
2022/01/29 00:09:02;;;;;;;8.07;5.60;;;6.60;43.00;;;;;;10366404;28;20769;-69
2022/01/29 00:14:06;;;;;;;7.27;5.70;;;6.60;42.90;;;;;;10367427;28;20239;-70
2022/01/29 00:19:11;;;;;;;6.80;5.10;;;6.60;42.90;;;;;;10372184;28;20231;-69
2022/01/29 00:24:14;;;;;;;6.60;5.23;;;6.60;42.80;;;;;;10373380;28;20234;-69
2022/01/29 00:29:20;;;;;;;6.23;5.13;;;6.60;42.80;;;;;;10384835;28;20272;-69
2022/01/29 00:34:25;;;;;;;6.07;4.80;;;6.50;42.90;;;;;;10380077;28;20662;-70
2022/01/29 00:39:28;;;;;;;6.30;5.17;;;6.50;42.80;;;;;;10384488;28;20229;-69
2022/01/29 00:44:31;;;;;;;5.83;5.20;;;6.50;42.90;;;;;;10378504;28;20229;-69
2022/01/29 00:49:36;;;;;;;6.37;5.20;;;6.40;43.00;;;;;;10386109;28;20721;-69
2022/01/29 00:54:39;;;;;;;7.10;6.07;;;6.40;42.90;;;;;;10383942;28;20227;-69
2022/01/29 00:59:42;;;;;;;9.40;7.43;;;6.30;43.00;;;;;;10378598;28;20222;-69
2022/01/29 01:04:47;;;;;;;8.27;6.57;;;6.30;43.10;;;;;;10380064;28;20233;-69
2022/01/29 01:09:50;;;;;;;6.17;5.57;;;6.20;43.00;;;;;;10385645;28;20317;-69
2022/01/29 01:14:53;;;;;;;5.87;5.27;;;6.20;43.10;;;;;;10384107;28;20234;-70
2022/01/29 01:19:58;;;;;;;6.07;5.43;;;6.20;43.20;;;;;;10377544;28;20596;-70
2022/01/29 01:25:01;;;;;;;6.00;5.40;;;6.20;43.10;;;;;;10375377;28;20768;-70
2022/01/29 01:30:06;;;;;;;6.50;5.33;;;6.10;43.00;;;;;;10379450;28;20225;-69
2022/01/29 01:35:17;;;;;;;6.70;5.60;;;6.10;43.20;;;;;;10380090;28;20782;-69
2022/01/29 01:40:22;;;;;;;6.10;5.10;;;6.00;43.20;;;;;;10383893;28;20233;-69
2022/01/29 01:45:25;;;;;;;5.50;4.87;;;6.00;43.20;;;;;;10381137;28;20246;-69
2022/01/29 01:50:29;;;;;;;6.23;5.27;;;6.00;43.30;;;;;;10382411;28;20233;-69
2022/01/29 01:55:33;;;;;;;5.47;4.90;;;6.00;43.30;;;;;;10382373;28;20596;-69
2022/01/29 02:00:36;;;;;;;6.20;5.13;;;6.00;43.40;;;;;;10382978;28;20234;-70
2022/01/29 02:05:41;;;;;;;5.30;4.80;;;6.00;43.40;;;;;;10384855;28;20597;-69
2022/01/29 02:10:47;;;;;;;7.90;5.23;;;6.00;43.20;;;;;;10381357;28;20222;-70
2022/01/29 02:15:50;;;;;;;6.83;4.90;;;6.00;43.20;;;;;;10380403;28;20237;-70
2022/01/29 02:20:55;;;;;;;6.07;4.80;;;6.00;43.40;;;;;;10379893;28;20222;-69
2022/01/29 02:26:00;;;;;;;5.83;5.33;;;6.00;43.20;;;;;;10377253;28;20241;-69
2022/01/29 02:31:04;;;;;;;6.40;5.27;;;6.00;43.20;;;;;;10381877;28;20694;-69
2022/01/29 02:36:08;;;;;;;5.70;5.20;;;6.00;43.40;;;;;;10383747;28;20284;-69
2022/01/29 02:41:12;;;;;;;6.73;4.77;;;6.00;43.20;;;;;;10379875;28;20236;-69
2022/01/29 02:46:28;;;;;;;5.53;4.67;;;6.10;43.10;;;;;;10378530;28;20256;-69
2022/01/29 02:51:32;;;;;;;5.50;5.00;;;6.10;43.20;;;;;;10379899;28;20217;-69
2022/01/29 02:56:36;;;;;;;5.50;4.97;;;6.10;43.10;;;;;;10379692;28;20237;-69
2022/01/29 03:01:40;;;;;;;8.60;5.43;;;6.20;43.10;;;;;;10382262;28;20217;-69
2022/01/29 03:06:44;;;;;;;6.50;5.63;;;6.20;43.10;;;;;;10376996;28;20889;-69
2022/01/29 03:11:48;;;;;;;6.27;5.67;;;6.20;43.00;;;;;;10383151;28;20225;-69
2022/01/29 03:16:51;;;;;;;7.30;4.90;;;6.20;42.80;;;;;;10376898;28;20257;-69
2022/01/29 03:21:54;;;;;;;6.27;5.67;;;6.20;42.90;;;;;;10377788;28;20236;-69
2022/01/29 03:26:59;;;;;;;5.60;5.03;;;6.20;43.00;;;;;;10381064;28;20230;-69
2022/01/29 03:32:02;;;;;;;6.10;5.13;;;6.10;42.80;;;;;;10378145;28;20227;-69
2022/01/29 03:37:05;;;;;;;6.43;5.53;;;6.10;43.00;;;;;;10383981;28;20241;-69
2022/01/29 03:42:13;;;;;;;6.30;5.43;;;6.10;43.00;;;;;;10380011;28;20702;-69
2022/01/29 03:47:16;;;;;;;8.20;5.67;;;6.10;42.80;;;;;;10381349;28;20265;-69
2022/01/29 03:52:20;;;;;;;7.50;5.60;;;6.10;42.90;;;;;;10375847;28;20679;-69
2022/01/29 03:57:24;;;;;;;6.20;5.10;;;6.10;42.90;;;;;;10383209;28;20599;-69
2022/01/29 04:02:27;;;;;;;6.03;5.43;;;6.00;42.90;;;;;;10383913;28;20232;-69
2022/01/29 04:07:31;;;;;;;5.93;5.10;;;6.00;42.90;;;;;;10388635;28;20287;-69
2022/01/29 04:12:44;;;;;;;6.60;5.77;;;6.00;42.90;;;;;;10384971;28;20221;-69
2022/01/29 04:17:47;;;;;;;6.80;5.33;;;5.90;42.90;;;;;;10385562;28;20229;-69
2022/01/29 04:22:50;;;;;;;5.53;4.97;;;5.90;42.90;;;;;;10379503;28;20222;-69
2022/01/29 04:27:55;;;;;;;5.30;4.80;;;5.90;43.00;;;;;;10390266;28;20237;-69
2022/01/29 04:33:03;;;;;;;5.83;4.90;;;5.90;42.90;;;;;;10384570;28;20226;-69
2022/01/29 04:38:06;;;;;;;6.23;4.90;;;5.90;43.00;;;;;;10390820;28;20226;-69
2022/01/29 04:43:11;;;;;;;6.13;4.50;;;5.90;43.10;;;;;;10383694;28;20226;-69
2022/01/29 04:48:14;;;;;;;4.80;4.40;;;5.90;43.00;;;;;;10384609;28;20237;-69
2022/01/29 04:53:17;;;;;;;6.80;4.70;;;5.90;43.10;;;;;;10381552;28;20218;-69
2022/01/29 04:58:22;;;;;;;6.77;4.47;;;5.90;43.00;;;;;;10382967;28;20811;-69
2022/01/29 05:03:25;;;;;;;6.10;4.70;;;5.80;42.80;;;;;;10381077;28;20232;-69
2022/01/29 05:08:29;;;;;;;5.00;4.50;;;5.80;42.90;;;;;;10380490;28;20253;-69
2022/01/29 05:13:36;;;;;;;6.40;5.00;;;5.80;43.00;;;;;;10382351;28;20233;-70
2022/01/29 05:29:23;;;;;;;5.23;4.37;;;5.80;42.90;;;;;;10381135;28;20230;-69
2022/01/29 05:34:26;;;;;;;4.40;4.00;;;5.80;42.90;;;;;;10385962;28;20237;-69
2022/01/29 05:39:29;;;;;;;3.87;3.57;;;5.80;42.90;;;;;;10378068;28;20230;-69
2022/01/29 05:44:34;;;;;;;4.87;3.87;;;5.80;42.90;;;;;;10380432;28;20233;-69
2022/01/29 05:49:37;;;;;;;4.00;3.60;;;5.80;42.80;;;;;;10378675;28;20229;-69
2022/01/29 05:54:40;;;;;;;4.27;3.87;;;5.80;42.90;;;;;;10380143;28;20233;-69
2022/01/29 05:59:45;;;;;;;4.57;4.03;;;5.80;42.90;;;;;;10375339;28;20230;-69
2022/01/29 06:04:48;;;;;;;5.70;3.80;;;5.80;42.80;;;;;;10376803;28;20229;-69
2022/01/29 06:09:51;;;;;;;4.77;3.57;;;5.80;43.70;;;;;;10378834;28;20234;-69
2022/01/29 06:14:55;;;;;;;8.20;4.80;;;5.80;42.80;;;;;;10377243;28;20261;-69
2022/01/29 06:19:59;;;;;;;5.63;4.20;;;5.80;43.70;;;;;;10377612;28;20232;-69
2022/01/29 06:25:02;;;;;;;4.40;3.53;;;5.80;43.00;;;;;;10374329;28;20225;-69
2022/01/29 06:30:08;;;;;;;3.90;3.53;;;5.80;43.00;;;;;;10378974;28;20253;-69
2022/01/29 06:35:12;;;;;;;4.03;3.30;;;5.80;42.80;;;;;;10378591;28;20615;-69
2022/01/29 06:40:15;;;;;;;4.30;3.90;;;5.80;42.90;;;;;;10376681;28;20233;-69
2022/01/29 06:45:20;;;;;;;4.93;3.20;;;5.80;43.00;;;;;;10375337;28;20218;-69
2022/01/29 06:50:23;;;;;;;3.77;3.30;;;5.80;42.80;;;;;;10378753;28;20230;-70
2022/01/29 06:55:26;;;;;;;4.97;3.17;;;5.90;42.90;;;;;;10376746;28;20222;-69
2022/01/29 07:00:31;;;;;;;3.47;2.90;;;5.90;42.80;;;;;;10377872;28;20229;-69
2022/01/29 07:05:35;;;;;;;3.47;2.77;;;5.90;42.50;;;;;;10377726;28;20229;-69
2022/01/29 07:10:38;;;;;;;4.20;3.33;;;6.00;43.60;;;;;;10377787;28;20222;-69
2022/01/29 07:15:42;;;;;;;2.93;2.60;;;6.00;42.70;;;;;;10375521;28;20229;-69
2022/01/29 07:20:46;;;;;;;2.90;2.50;;;6.10;42.50;;;;;;10376098;28;20233;-69
2022/01/29 07:25:50;;;;;;;3.20;2.90;;;6.10;42.60;;;;;;10371002;28;20245;-69
2022/01/29 07:30:54;;;;;;;3.20;2.80;;;6.20;42.60;;;;;;10373964;28;20234;-69
2022/01/29 07:35:58;;;;;;;2.53;2.33;;;6.20;42.50;;;;;;10375594;28;20226;-69
2022/01/29 07:41:01;;;;;;;5.90;2.97;;;6.20;42.40;;;;;;10370767;28;20249;-69
2022/01/29 07:46:06;;;;;;;3.47;3.10;;;6.20;42.50;;;;;;10374470;28;20702;-69
2022/01/29 07:51:09;;;;;;;5.07;4.10;;;6.30;42.20;;;;;;10373579;28;20753;-68
2022/01/29 07:56:12;;;;;;;4.33;3.60;;;6.30;42.40;;;;;;10376412;28;20761;-69
2022/01/29 08:01:16;;;;;;;3.87;3.17;;;6.30;42.30;;;;;;10375498;28;20744;-69
2022/01/29 08:06:22;;;;;;;4.70;3.00;;;6.40;42.20;;;;;;10377766;28;20225;-70
2022/01/29 08:11:26;;;;;;;3.67;2.97;;;6.40;42.30;;;;;;10376315;28;20788;-70
2022/01/29 08:16:30;;;;;;;5.70;3.50;;;6.40;42.30;;;;;;10372993;28;20233;-71
2022/01/29 08:21:33;;;;;;;3.90;3.50;;;6.40;42.10;;;;;;10369701;28;20226;-71
2022/01/29 08:26:37;;;;;;;4.17;3.40;;;6.40;42.30;;;;;;10373256;28;20237;-71
2022/01/29 08:31:41;;;;;;;3.97;3.20;;;6.40;42.20;;;;;;10371549;28;20230;-71
2022/01/29 08:36:44;;;;;;;4.37;3.50;;;6.50;42.30;;;;;;10368456;28;20766;-71
2022/01/29 08:41:47;;;;;;;6.70;3.80;;;6.50;42.50;;;;;;10369575;28;20225;-71
2022/01/29 08:46:52;;;;;;;6.03;3.90;;;6.60;42.40;;;;;;10372794;28;20706;-71
2022/01/29 08:51:55;;;;;;;4.00;3.40;;;6.60;42.00;;;;;;10377136;28;20230;-70
2022/01/29 08:56:59;;;;;;;5.20;4.47;;;6.70;42.20;;;;;;10376189;28;20245;-71
2022/01/29 09:02:04;;;;;;;4.10;3.77;;;6.70;42.00;;;;;;10377933;28;20218;-70
2022/01/29 09:07:09;;;;;;;3.50;3.20;;;6.80;41.80;;;;;;10379644;28;20238;-70
2022/01/29 09:12:13;;;;;;;3.60;3.00;;;6.80;41.90;;;;;;10387719;28;20222;-71
2022/01/29 09:17:18;;;;;;;4.40;3.37;;;6.80;42.00;;;;;;10389762;28;20222;-70
2022/01/29 09:22:21;;;;;;;3.80;2.83;;;6.80;41.60;;;;;;10385633;28;23079;-70
2022/01/29 09:27:24;;;;;;;3.00;2.70;;;6.90;42.00;;;;;;10377722;28;20321;-73
2022/01/29 09:32:30;;;;;;;3.67;3.30;;;7.00;41.90;;;;;;10379331;28;20213;-69
2022/01/29 09:37:33;;;;;;;3.20;2.90;;;7.00;41.90;;;;;;10384086;28;20304;-70
2022/01/29 09:42:39;;;;;;;4.90;3.47;;;7.10;42.00;;;;;;10387835;28;20234;-70
2022/01/29 09:47:44;;;;;;;3.93;3.43;;;7.10;41.70;;;;;;10378132;28;20237;-70
2022/01/29 09:52:48;;;;;;;4.27;3.67;;;7.20;41.60;;;;;;10380200;28;20225;-71
2022/01/29 09:57:51;;;;;;;4.37;3.50;;;7.20;41.70;;;;;;10382277;28;20226;-71
2022/01/29 10:03:15;;;;;;;4.73;3.27;;;7.30;41.70;;;;;;10381198;28;20714;-70
2022/01/29 10:08:19;;;;;;;4.73;3.93;;;7.30;41.10;;;;;;10383094;28;20237;-70
2022/01/29 10:13:31;;;;;;;4.10;3.70;;;7.30;41.60;;;;;;10374995;28;20223;-69
2022/01/29 10:18:36;;;;;;;4.73;4.13;;;7.30;41.20;;;;;;10371880;28;20225;-70
2022/01/29 10:23:40;;;;;;;5.77;5.27;;;7.40;41.60;;;;;;10382709;28;20225;-69
2022/01/29 10:28:53;;;;;;;4.93;4.43;;;7.40;41.70;;;;;;10378659;28;20257;-69
2022/01/29 10:33:58;;;;;;;5.20;4.50;;;7.50;40.90;;;;;;10386378;28;20501;-69
2022/01/29 10:39:02;;;;;;;5.67;5.03;;;7.50;41.50;;;;;;10382510;28;20230;-69
2022/01/29 10:44:13;;;;;;;6.03;5.17;;;7.50;41.60;;;;;;10387880;28;20222;-69
2022/01/29 10:49:22;;;;;;;7.10;5.50;;;7.60;41.20;;;;;;10387005;28;20226;-69
2022/01/29 10:54:25;;;;;;;5.90;4.93;;;7.70;41.10;;;;;;10382774;28;20229;-69
2022/01/29 10:59:31;;;;;;;6.93;5.57;;;7.80;41.30;;;;;;10389948;28;20222;-69
2022/01/29 11:04:37;;;;;;;6.70;5.70;;;7.80;41.20;;;;;;10373217;28;20225;-69
2022/01/29 11:09:43;;;;;;;7.97;5.77;;;7.90;41.30;;;;;;10374762;28;20229;-69
2022/01/29 11:14:46;;;;;;;6.50;5.63;;;8.00;41.30;;;;;;10371774;28;20218;-67
2022/01/29 11:19:51;;;;;;;10.77;6.43;;;8.10;42.00;;;;;;10373802;28;20234;-69
2022/01/29 11:24:58;;;;;;;6.90;6.20;;;8.10;41.50;;;;;;10374397;28;20221;-71
2022/01/29 11:30:05;;;;;;;7.03;6.30;;;8.20;40.90;;;;;;10379077;28;20222;-71
2022/01/29 11:35:18;;;;;;;6.10;5.47;;;8.20;41.00;;;;;;10374449;28;20238;-71
2022/01/29 11:40:27;;;;;;;6.57;5.77;;;8.30;40.90;;;;;;10384220;28;20244;-71
2022/01/29 11:45:53;;;;;;;5.73;5.07;;;8.40;40.90;;;;;;10376639;28;20229;-72
2022/01/29 11:50:58;;;;;;;5.57;5.03;;;8.40;40.30;;;;;;10376469;28;20593;-72
2022/01/29 11:56:01;;;;;;;5.47;4.97;;;8.50;41.00;;;;;;10375274;28;20725;-72
2022/01/29 12:01:06;;;;;;;5.07;4.67;;;8.50;41.30;;;;;;10373865;28;20222;-71
2022/01/29 12:06:20;;;;;;;5.50;4.83;;;8.60;41.10;;;;;;10371783;28;20241;-72
2022/01/29 12:11:23;;;;;;;10.33;8.97;;;8.70;40.10;;;;;;10375782;28;20236;-72
2022/01/29 12:16:48;;;;;;;5.20;4.70;;;8.70;40.80;;;;;;10375667;28;20924;-72
2022/01/29 12:21:53;;;;;;;5.00;4.50;;;8.70;40.10;;;;;;10379420;28;20226;-72
2022/01/29 12:26:57;;;;;;;4.57;4.17;;;8.80;40.70;;;;;;10383926;28;20234;-72
2022/01/29 12:32:00;;;;;;;4.13;3.73;;;8.80;40.90;;;;;;10384238;28;20222;-72
2022/01/29 12:37:13;;;;;;;5.53;4.27;;;8.90;40.80;;;;;;10373625;28;20222;-72
2022/01/29 12:42:28;;;;;;;4.67;3.87;;;8.90;40.00;;;;;;10376516;28;20234;-72
2022/01/29 12:47:33;;;;;;;4.80;4.00;;;8.90;40.90;;;;;;10381490;28;20226;-72
2022/01/29 12:52:38;;;;;;;4.47;3.63;;;9.00;40.80;;;;;;10385542;28;20303;-72
2022/01/29 12:57:44;;;;;;;4.10;3.70;;;9.10;40.70;;;;;;10379127;28;20230;-72
2022/01/29 13:02:48;;;;;;;4.47;3.90;;;9.10;40.70;;;;;;10380805;28;20226;-73
2022/01/29 13:07:53;;;;;;;3.90;3.43;;;9.10;40.80;;;;;;10381743;28;20229;-72
2022/01/29 13:12:56;;;;;;;4.40;3.90;;;9.20;40.50;;;;;;10381510;28;20527;-72
2022/01/29 13:18:00;;;;;;;4.13;3.73;;;9.20;40.70;;;;;;10383929;28;20236;-74
2022/01/29 13:23:05;;;;;;;3.53;3.23;;;9.20;40.80;;;;;;10379933;28;20674;-72
2022/01/29 13:28:12;;;;;;;4.17;3.50;;;9.30;40.30;;;;;;10380607;28;20237;-72
2022/01/29 13:33:18;;;;;;;4.63;4.00;;;9.30;40.40;;;;;;10380063;28;20222;-72
2022/01/29 13:38:25;;;;;;;4.17;3.83;;;9.30;40.30;;;;;;10384909;28;20240;-72
2022/01/29 13:43:34;;;;;;;5.07;3.13;;;9.40;40.40;;;;;;10381274;28;20228;-72
2022/01/29 13:48:47;;;;;;;3.30;3.00;;;9.50;40.50;;;;;;10384155;28;20311;-71
2022/01/29 13:53:54;;;;;;;3.03;2.73;;;9.60;40.50;;;;;;10387236;28;20222;-72
2022/01/29 13:58:59;;;;;;;3.50;2.37;;;9.60;40.60;;;;;;10392050;28;20240;-72
2022/01/29 14:04:03;;;;;;;3.03;2.73;;;9.70;40.60;;;;;;10382985;28;20734;-71
2022/01/29 14:09:18;;;;;;;2.77;2.57;;;9.80;40.70;;;;;;10379226;28;20718;-70
2022/01/29 14:14:22;;;;;;;3.40;3.10;;;9.80;40.60;;;;;;10376239;28;20226;-70
2022/01/29 14:19:28;;;;;;;2.70;2.50;;;9.90;40.80;;;;;;10380863;28;20233;-70
2022/01/29 14:24:32;;;;;;;3.20;2.20;;;9.90;40.80;;;;;;10375896;28;20218;-71
2022/01/29 14:29:37;;;;;;;2.53;2.10;;;9.90;40.80;;;;;;10380085;28;20230;-70
2022/01/29 14:34:55;;;;;;;4.67;2.77;;;9.90;40.80;;;;;;10377052;28;20238;-70
2022/01/29 14:39:59;;;;;;;2.80;2.53;;;9.90;40.80;;;;;;10378310;28;20590;-70
2022/01/29 14:45:03;;;;;;;2.50;2.30;;;10.00;39.90;;;;;;10381696;28;20719;-70
2022/01/29 14:50:07;;;;;;;3.00;2.33;;;10.00;39.90;;;;;;10376829;28;20870;-70
2022/01/29 14:55:12;;;;;;;2.63;2.43;;;10.00;39.90;;;;;;10375662;28;20230;-70
2022/01/29 15:00:18;;;;;;;2.30;2.10;;;10.00;39.90;;;;;;10374487;28;20687;-70
2022/01/29 15:05:21;;;;;;;2.53;2.40;;;10.00;39.90;;;;;;10380039;28;20312;-70
2022/01/29 15:10:26;;;;;;;2.07;1.80;;;10.10;40.00;;;;;;10380138;28;20302;-70
2022/01/29 15:15:29;;;;;;;2.00;1.90;;;10.10;39.90;;;;;;10376842;28;20233;-70
2022/01/29 15:20:33;;;;;;;2.47;2.13;;;10.10;39.80;;;;;;10382845;28;20229;-70
2022/01/29 15:25:38;;;;;;;2.30;2.10;;;10.10;39.70;;;;;;10381269;28;20226;-70
2022/01/29 15:31:01;;;;;;;1.93;1.77;;;10.20;39.50;;;;;;10371537;28;20229;-70
2022/01/29 15:36:06;;;;;;;3.37;2.03;;;10.20;39.50;;;;;;10374008;28;20709;-70
2022/01/29 15:41:11;;;;;;;2.07;1.93;;;10.20;39.50;;;;;;10375034;28;20228;-70
2022/01/29 15:46:14;;;;;;;1.73;1.63;;;10.30;39.60;;;;;;10372608;28;20711;-71
2022/01/29 15:51:17;;;;;;;3.00;1.97;;;10.30;39.90;;;;;;10374690;28;20718;-71
2022/01/29 15:56:22;;;;;;;2.00;1.90;;;10.40;40.00;;;;;;10382589;28;20797;-71
2022/01/29 16:01:25;;;;;;;1.70;1.60;;;10.40;39.50;;;;;;10380907;28;20240;-71
2022/01/29 16:06:28;;;;;;;1.77;1.67;;;10.40;39.70;;;;;;10378567;28;20744;-72
2022/01/29 16:11:33;;;;;;;2.17;2.00;;;10.50;39.70;;;;;;10383693;28;20334;-71
2022/01/29 16:16:36;;;;;;;2.40;2.20;;;10.50;39.30;;;;;;10386729;28;20613;-71
2022/01/29 16:21:39;;;;;;;2.40;2.20;;;10.50;39.60;;;;;;10380793;28;20226;-71
2022/01/29 16:26:43;;;;;;;3.23;2.40;;;10.50;39.80;;;;;;10380976;28;20222;-71
2022/01/29 16:31:47;;;;;;;2.40;2.20;;;10.50;39.40;;;;;;10381251;28;20717;-71
2022/01/29 16:36:50;;;;;;;1.90;1.80;;;10.50;39.40;;;;;;10385381;28;20225;-71
2022/01/29 16:41:54;;;;;;;2.00;1.90;;;10.50;39.50;;;;;;10378550;28;20224;-71
2022/01/29 16:46:57;;;;;;;1.60;1.50;;;10.50;39.40;;;;;;10384579;28;20237;-71
2022/01/29 16:52:01;;;;;;;1.90;1.80;;;10.50;39.50;;;;;;10378793;28;20223;-71
2022/01/29 16:57:05;;;;;;;1.70;1.60;;;10.50;39.60;;;;;;10382213;28;20233;-71
2022/01/29 17:02:10;;;;;;;2.50;2.30;;;10.60;39.30;;;;;;10378812;28;20240;-71
2022/01/29 17:07:16;;;;;;;1.70;1.60;;;10.50;39.40;;;;;;10375950;28;20231;-71
2022/01/29 17:12:20;;;;;;;1.83;1.50;;;10.60;39.60;;;;;;10379395;28;20230;-72
2022/01/29 17:17:23;;;;;;;1.80;1.60;;;10.50;39.20;;;;;;10382117;28;20230;-71
2022/01/29 17:22:27;;;;;;;1.60;1.50;;;10.60;39.70;;;;;;10380156;28;20229;-71
2022/01/29 17:27:31;;;;;;;1.60;1.50;;;10.60;39.60;;;;;;10372484;28;20240;-71
2022/01/29 17:32:49;;;;;;;1.60;1.40;;;10.60;39.40;;;;;;10370439;28;20250;-71
2022/01/29 17:37:53;;;;;;;1.40;1.30;;;10.60;39.50;;;;;;10368601;28;20313;-71
2022/01/29 17:42:59;;;;;;;1.57;1.40;;;10.60;39.50;;;;;;10372065;28;20336;-71
2022/01/29 17:48:02;;;;;;;1.50;1.40;;;10.60;39.40;;;;;;10371837;28;20232;-70
2022/01/29 17:53:06;;;;;;;1.40;1.30;;;10.70;39.60;;;;;;10374723;28;20540;-71
2022/01/29 17:58:11;;;;;;;1.53;1.43;;;10.70;39.40;;;;;;10373639;28;20232;-71
2022/01/29 18:03:14;;;;;;;2.03;1.83;;;10.70;39.10;;;;;;10377557;28;20607;-71
2022/01/29 18:08:18;;;;;;;1.87;1.70;;;10.70;39.40;;;;;;10376798;28;20226;-71
2022/01/29 18:13:23;;;;;;;1.60;1.50;;;10.70;39.40;;;;;;10375556;28;20698;-71
2022/01/29 18:18:26;;;;;;;1.40;1.30;;;10.60;39.20;;;;;;10374628;28;21074;-71
2022/01/29 18:23:30;;;;;;;2.17;1.40;;;10.60;39.40;;;;;;10374430;28;20222;-71
2022/01/29 18:28:35;;;;;;;1.10;1.10;;;10.70;39.40;;;;;;10378579;28;20226;-71
2022/01/29 18:33:39;;;;;;;1.40;1.30;;;10.70;39.40;;;;;;10378526;28;20703;-71
2022/01/29 18:38:42;;;;;;;1.33;1.23;;;10.70;39.40;;;;;;10376759;28;20253;-71
2022/01/29 18:43:47;;;;;;;1.47;1.03;;;10.70;39.40;;;;;;10377265;28;20226;-71
2022/01/29 18:48:50;;;;;;;1.10;1.10;;;10.70;39.20;;;;;;10381331;28;20718;-70
2022/01/29 18:53:53;;;;;;;1.30;1.20;;;10.70;39.20;;;;;;10376142;28;20230;-70
2022/01/29 18:58:58;;;;;;;0.90;0.87;;;10.70;39.30;;;;;;10373726;28;20605;-71
2022/01/29 19:04:01;;;;;;;1.10;1.10;;;10.70;39.20;;;;;;10380252;28;20339;-71
2022/01/29 19:09:04;;;;;;;0.93;0.93;;;10.70;39.40;;;;;;10371805;28;20233;-71
2022/01/29 19:14:09;;;;;;;1.00;1.00;;;10.60;40.10;;;;;;10376112;28;20226;-71
2022/01/29 19:19:12;;;;;;;1.43;1.00;;;10.60;39.10;;;;;;10368722;28;20233;-71
2022/01/29 19:24:15;;;;;;;1.10;1.10;;;10.60;39.40;;;;;;10372024;28;20225;-71
2022/01/29 19:29:20;;;;;;;1.50;1.40;;;10.60;39.50;;;;;;10371313;28;20233;-71
2022/01/29 19:34:23;;;;;;;0.90;0.90;;;10.60;39.40;;;;;;10369324;28;20594;-71
2022/01/29 19:39:26;;;;;;;1.20;1.20;;;10.60;40.20;;;;;;10370683;28;20222;-71
2022/01/29 19:44:31;;;;;;;1.00;1.00;;;10.60;39.40;;;;;;10375729;28;20217;-71
2022/01/29 19:49:34;;;;;;;1.10;1.00;;;10.60;39.20;;;;;;10371617;28;20236;-71
2022/01/29 19:54:37;;;;;;;0.93;0.93;;;10.60;39.30;;;;;;10376472;28;20222;-71
2022/01/29 19:59:42;;;;;;;1.03;1.03;;;10.60;39.50;;;;;;10374256;28;20440;-71
2022/01/29 20:04:45;;;;;;;1.00;1.00;;;10.60;39.20;;;;;;10373016;28;20232;-71
2022/01/29 20:09:48;;;;;;;1.10;1.10;;;10.60;39.40;;;;;;10375125;28;20242;-71
2022/01/29 20:14:53;;;;;;;1.10;1.00;;;10.50;39.20;;;;;;10375784;28;20225;-71
2022/01/29 20:19:56;;;;;;;1.03;1.03;;;10.50;39.30;;;;;;10372928;28;20230;-71
2022/01/29 20:24:59;;;;;;;1.20;1.10;;;10.50;39.40;;;;;;10373345;28;20223;-71
2022/01/29 20:30:04;;;;;;;1.03;1.03;;;10.50;39.50;;;;;;10372382;28;20226;-71
2022/01/29 20:35:11;;;;;;;1.00;1.00;;;10.50;39.60;;;;;;10370103;28;20223;-71
2022/01/29 20:40:15;;;;;;;1.03;1.03;;;10.50;39.70;;;;;;10376560;28;20226;-71
2022/01/29 20:45:19;;;;;;;1.00;1.00;;;10.50;39.70;;;;;;10373346;28;20222;-71
2022/01/29 20:50:23;;;;;;;1.23;1.03;;;10.50;39.60;;;;;;10375518;28;20230;-70
2022/01/29 20:55:29;;;;;;;1.10;1.10;;;10.50;39.90;;;;;;10372333;28;20228;-70
2022/01/29 21:00:35;;;;;;;0.90;0.90;;;10.50;39.90;;;;;;10374505;28;20240;-70
2022/01/29 21:05:38;;;;;;;0.97;0.97;;;10.40;39.80;;;;;;10369305;28;20253;-70
2022/01/29 21:10:41;;;;;;;1.00;1.00;;;10.40;40.10;;;;;;10373150;28;20226;-70
2022/01/29 21:15:46;;;;;;;1.00;1.00;;;10.40;40.20;;;;;;10371830;28;20226;-70
2022/01/29 21:20:50;;;;;;;0.80;0.80;;;10.40;40.30;;;;;;10360868;28;20241;-70
2022/01/29 21:25:54;;;;;;;1.00;1.00;;;10.40;40.30;;;;;;10371806;28;20236;-70
2022/01/29 21:30:59;;;;;;;2.10;0.83;;;10.40;40.00;;;;;;10372362;28;20232;-70
2022/01/29 21:36:03;;;;;;;0.90;0.90;;;10.40;40.30;;;;;;10368879;28;20580;-68
2022/01/29 21:41:06;;;;;;;0.70;0.70;;;10.50;40.30;;;;;;10369643;28;20226;-68
2022/01/29 21:46:11;;;;;;;0.80;0.80;;;10.50;40.40;;;;;;10376825;28;20225;-68
2022/01/29 21:51:14;;;;;;;0.87;0.87;;;10.50;40.40;;;;;;10368944;28;20222;-68
2022/01/29 21:56:18;;;;;;;0.70;0.70;;;10.50;40.40;;;;;;10369407;28;20242;-68
2022/01/29 22:01:22;;;;;;;0.97;0.87;;;10.50;40.40;;;;;;10369298;28;20238;-68
2022/01/29 22:06:25;;;;;;;1.33;1.00;;;10.50;40.40;;;;;;10369819;28;20248;-68
2022/01/29 22:11:29;;;;;;;0.90;0.90;;;10.50;40.40;;;;;;10374536;28;20690;-68
2022/01/29 22:16:34;;;;;;;2.03;0.90;;;10.50;40.40;;;;;;10377685;28;20230;-68
2022/01/29 22:21:38;;;;;;;0.50;0.50;;;10.50;40.40;;;;;;10364982;28;20233;-68
2022/01/29 22:26:42;;;;;;;0.80;0.80;;;10.40;40.30;;;;;;10366425;28;20632;-69
2022/01/29 22:31:47;;;;;;;0.70;0.70;;;10.40;40.30;;;;;;10368342;28;20237;-68
2022/01/29 22:36:51;;;;;;;0.80;0.80;;;10.40;40.40;;;;;;10369001;28;20427;-69
2022/01/29 22:41:54;;;;;;;0.70;0.70;;;10.40;40.40;;;;;;10371268;28;20233;-69
2022/01/29 22:46:59;;;;;;;0.73;0.73;;;10.40;40.30;;;;;;10371663;28;20240;-68
2022/01/29 22:52:02;;;;;;;0.70;0.70;;;10.40;40.70;;;;;;10369124;28;20222;-68
2022/01/29 22:57:06;;;;;;;0.80;0.80;;;10.40;40.90;;;;;;10373822;28;20241;-68
2022/01/29 23:02:10;;;;;;;0.60;0.60;;;10.30;40.90;;;;;;10365518;28;20788;-69
2022/01/29 23:07:16;;;;;;;0.80;0.80;;;10.30;41.20;;;;;;10364980;28;20243;-68
2022/01/29 23:12:25;;;;;;;0.70;0.67;;;10.20;41.20;;;;;;10369719;28;20708;-68
2022/01/29 23:17:30;;;;;;;0.70;0.70;;;10.20;41.20;;;;;;10363204;28;20229;-68
2022/01/29 23:22:45;;;;;;;0.73;0.70;;;10.10;41.60;;;;;;10365553;28;20226;-68
2022/01/29 23:28:04;;;;;;;0.60;0.60;;;10.10;41.40;;;;;;10368651;28;20233;-69
2022/01/29 23:33:32;;;;;;;0.60;0.60;;;10.10;41.60;;;;;;10366335;28;20545;-69
2022/01/29 23:38:36;;;;;;;1.03;0.70;;;10.10;41.80;;;;;;10362498;28;20237;-68
2022/01/29 23:43:45;;;;;;;0.93;0.83;;;10.10;41.70;;;;;;10366822;28;20218;-68
2022/01/29 23:54:11;;;;;;;1.53;1.43;;;10.10;41.70;;;;;;10367520;28;20725;-69
2022/01/29 23:59:15;;;;;;;1.80;1.70;;;10.20;41.80;;;;;;10365584;28;20222;-68
